Wednesday, September 3, 2014, 12:33 AM EDT

KRIC, Richmond International Airport

Location: Sandston, VA, United States Lat: 37.517
Local Time: 12:33 AM EDT ( 4:33 GMT) Lon: -77.317
Time Zone: US/Eastern Elev: 167 ft

Show me the last for .
Show Decoded

2014-09-03 00:11 METAR KRIC 030411Z 29005KT 10SM FEW055 SCT090 OVC200 28/19 A2994 RMK AO2 TSE08
                 OCNL LTG DSNT NE CB DSNT NE =
2014-09-02 23:54 METAR KRIC 030354Z 30009G19KT 10SM TS SCT060CB BKN090 OVC250 29/21 A2996 =
2014-09-02 22:54 METAR KRIC 030254Z 22011KT 10SM FEW050CB BKN250 29/21 A2992 RMK AO2 SLP134 FRQ
                 LTGIC W CB W MOV E T02940211 50005 =
2014-09-02 21:54 METAR KRIC 030154Z 20004KT 10SM BKN250 28/21 A2992 RMK AO2 SLP135 T02830211 =
2014-09-02 20:54 METAR KRIC 030054Z 21006KT 10SM BKN250 28/21 A2992 RMK AO2 SLP135 T02830211 =
2014-09-02 19:54 METAR KRIC 022354Z 20009KT 10SM SCT250 31/21 A2991 RMK AO2 SLP129 T03110206
                 10383 20306 53001 =
2014-09-02 18:54 METAR KRIC 022254Z 21012KT 10SM FEW075 SCT250 33/19 A2989 RMK AO2 SLP124
                 T03330194 =
2014-09-02 17:54 METAR KRIC 022154Z 21015KT 10SM FEW075 SCT250 35/20 A2988 RMK AO2 SLP122
                 T03500200 =
2014-09-02 16:54 METAR KRIC 022054Z 21012G19KT 10SM SCT075 SCT250 36/18 A2990 RMK AO2 SLP128
                 T03610183 56018 =
2014-09-02 15:54 METAR KRIC 021954Z 22010KT 10SM SCT075 SCT250 36/19 A2991 RMK AO2 SLP132
                 T03610189 =
2014-09-02 14:54 METAR KRIC 021854Z 27011G16KT 10SM SCT060 SCT250 37/16 A2994 RMK AO2 SLP140
                 T03720161 =
2014-09-02 13:54 METAR KRIC 021754Z 24006G18KT 10SM SCT060 SCT250 37/17 A2996 RMK AO2 SLP146
                 T03670167 10372 20244 58019 =
2014-09-02 12:54 METAR KRIC 021654Z 23007KT 10SM FEW050 BKN250 35/19 A2997 RMK AO2 SLP152
                 T03500194 =
2014-09-02 11:54 METAR KRIC 021554Z 25006KT 10SM FEW050 SCT250 35/19 A3000 RMK AO2 SLP160
                 T03500189 =
2014-09-02 10:54 METAR KRIC 021454Z 24007KT 10SM SCT250 33/21 A3001 RMK AO2 SLP166 T03330206
                 58001 =
2014-09-02 09:54 METAR KRIC 021354Z 22007KT 10SM FEW250 30/21 A3002 RMK AO2 SLP167 T03000211 =
2014-09-02 08:54 METAR KRIC 021254Z 22006KT 10SM FEW110 28/21 A3002 RMK AO2 SLP167 T02780206 =
2014-09-02 07:54 METAR KRIC 021154Z 18003KT 10SM FEW110 24/21 A3002 RMK AO2 SLP167 T02440211
                 10261 20228 53010 $ =
2014-09-02 06:54 METAR KRIC 021054Z 15004KT 10SM SCT080 24/21 A3001 RMK AO2 SLP164 T02390206 =
2014-09-02 05:54 METAR KRIC 020954Z 19005KT 10SM FEW080 SCT300 23/21 A2999 RMK AO2 SLP159
                 T02330206 $ =
2014-09-02 05:01 METAR KRIC 020901Z 20005KT 10SM OVC085 24/21 A2999 RMK AO2 $ =
2014-09-02 04:54 METAR KRIC 020854Z COR 21006KT 10SM BKN080 BKN300 24/21 A2999 =
2014-09-02 03:54 METAR KRIC 020754Z 21005KT 10SM BKN080 BKN300 24/21 A2999 RMK AO2 SLP158
                 T02390211 $ =
2014-09-02 02:54 METAR KRIC 020654Z 20003KT 10SM SCT300 24/21 A3000 =
2014-09-02 01:54 METAR KRIC 020554Z 23005KT 10SM FEW300 26/21 A3000 RMK AO2 SLP163 T02610211
                 10300 20244 56001 $ =
2014-09-02 00:54 METAR KRIC 020454Z 20005KT 10SM FEW300 26/21 A3001 RMK AO2 SLP163 T02560211
                 403560239 $ =

Support USWX by starting your Amazon purchase here.